createdAt,value
2022-08-09T00:49:13.699Z,14.09
2022-08-09T00:51:54.497Z,14.06
2022-08-09T00:54:34.929Z,14.11
2022-08-09T00:57:10.188Z,14.10
2022-08-09T00:59:40.983Z,13.97
2022-08-09T01:02:16.313Z,13.95
2022-08-09T01:04:54.182Z,13.94
2022-08-09T01:07:37.860Z,13.78
2022-08-09T01:10:25.941Z,13.76
2022-08-09T01:13:03.313Z,13.67
2022-08-09T01:15:41.093Z,13.63
2022-08-09T01:18:29.917Z,13.59
2022-08-09T01:21:15.413Z,13.53
2022-08-09T01:24:03.567Z,13.49
2022-08-09T01:26:57.050Z,13.44
2022-08-09T01:29:40.955Z,13.55
2022-08-09T01:32:37.733Z,13.51
2022-08-09T01:35:28.516Z,13.51
2022-08-09T01:38:09.577Z,13.57
2022-08-09T01:40:42.831Z,13.49
2022-08-09T01:43:13.200Z,13.44
2022-08-09T01:45:46.446Z,13.42
2022-08-09T01:48:18.073Z,13.40
2022-08-09T01:50:55.130Z,13.30
2022-08-09T01:53:24.016Z,13.25
2022-08-09T01:55:58.073Z,13.30
2022-08-09T01:58:30.831Z,13.24
2022-08-09T02:01:00.912Z,13.26
2022-08-09T02:03:30.911Z,13.23
2022-08-09T02:06:06.541Z,13.20
2022-08-09T02:08:59.179Z,13.10
2022-08-09T02:11:42.055Z,13.21
2022-08-09T02:14:25.243Z,13.22
2022-08-09T02:17:15.117Z,13.10
2022-08-09T02:19:45.460Z,13.20
2022-08-09T02:22:37.170Z,13.14
2022-08-09T02:25:08.699Z,13.22
2022-08-09T02:27:58.192Z,13.14
2022-08-09T02:30:32.570Z,13.08
2022-08-09T02:33:02.794Z,13.14
2022-08-09T02:36:03.315Z,13.15
2022-08-09T02:38:29.998Z,13.05
2022-08-09T02:41:03.027Z,13.10
2022-08-09T02:43:53.910Z,13.15
2022-08-09T02:46:27.902Z,12.96
2022-08-09T02:48:59.913Z,12.94
2022-08-09T02:51:32.983Z,12.93
2022-08-09T02:54:07.315Z,12.93
2022-08-09T02:56:37.073Z,12.93
2022-08-09T02:59:06.702Z,12.94
2022-08-09T03:01:58.631Z,12.81
2022-08-09T03:04:29.512Z,12.79
2022-08-09T03:06:59.785Z,12.91
2022-08-09T03:09:43.309Z,12.93
2022-08-09T03:12:23.046Z,12.90
2022-08-09T03:14:51.638Z,12.92
2022-08-09T03:17:26.799Z,12.88
2022-08-09T03:20:02.927Z,12.79
2022-08-09T03:22:34.100Z,12.78
2022-08-09T03:25:21.890Z,12.82
2022-08-09T03:28:01.917Z,12.78
2022-08-09T03:30:34.307Z,12.75
2022-08-09T03:33:12.907Z,12.71
2022-08-09T03:36:12.429Z,12.60
2022-08-09T03:38:34.301Z,12.63
2022-08-09T03:41:02.834Z,12.67
2022-08-09T03:43:33.111Z,12.72
2022-08-09T03:46:05.003Z,12.69
2022-08-09T03:48:54.852Z,12.60
2022-08-09T03:51:55.737Z,12.50
2022-08-09T03:54:12.528Z,12.48
2022-08-09T03:56:41.624Z,12.47
2022-08-09T03:59:17.165Z,12.45
2022-08-09T04:01:50.639Z,12.44
2022-08-09T04:04:20.236Z,12.51
2022-08-09T04:06:52.401Z,12.53
2022-08-09T04:09:48.111Z,12.52
2022-08-09T04:12:30.479Z,12.54
2022-08-09T04:15:11.469Z,12.40
2022-08-09T04:17:47.494Z,12.44
2022-08-09T04:20:17.818Z,12.41
2022-08-09T04:22:47.300Z,12.41
2022-08-09T04:25:19.242Z,12.42
2022-08-09T04:27:49.095Z,12.35
2022-08-09T04:30:20.987Z,12.38
2022-08-09T04:32:51.774Z,12.42
2022-08-09T04:35:21.651Z,12.38
2022-08-09T04:37:50.620Z,12.32
2022-08-09T04:40:36.131Z,12.43
2022-08-09T04:43:05.555Z,12.42
2022-08-09T04:45:36.123Z,12.55
2022-08-09T04:48:20.922Z,12.59
2022-08-09T04:50:50.162Z,12.58
2022-08-09T04:53:18.054Z,12.71
2022-08-09T04:55:57.822Z,12.67
2022-08-09T04:58:27.444Z,12.81
2022-08-09T05:00:55.254Z,12.93
2022-08-09T05:03:40.920Z,12.92
2022-08-09T05:06:26.867Z,13.09
2022-08-09T05:09:00.403Z,13.15
2022-08-09T05:11:32.432Z,13.28
2022-08-09T05:14:06.078Z,13.26
2022-08-09T05:16:58.251Z,13.23
2022-08-09T05:19:25.679Z,13.31
2022-08-09T05:21:56.428Z,13.29
2022-08-09T05:24:24.580Z,13.47
2022-08-09T05:26:52.654Z,13.44
2022-08-09T05:29:24.531Z,13.65
2022-08-09T05:32:01.578Z,13.67
2022-08-09T05:34:32.724Z,13.73
2022-08-09T05:37:05.957Z,13.63
2022-08-09T05:39:36.318Z,13.70
2022-08-09T05:42:17.629Z,14.05
2022-08-09T05:44:50.908Z,14.12
2022-08-09T05:47:19.181Z,14.26
2022-08-09T05:50:26.088Z,14.32
2022-08-09T05:52:38.542Z,14.54
2022-08-09T05:55:20.929Z,14.67
2022-08-09T05:57:56.730Z,14.93
2022-08-09T06:00:28.844Z,14.98
2022-08-09T06:03:01.429Z,15.15
2022-08-09T06:05:56.924Z,15.31
2022-08-09T06:08:45.687Z,15.49
2022-08-09T06:11:41.095Z,15.61
2022-08-09T06:14:17.490Z,15.75
2022-08-09T06:16:52.315Z,15.80
2022-08-09T06:19:20.915Z,16.09
2022-08-09T06:21:50.484Z,16.24
2022-08-09T06:24:20.689Z,16.51
2022-08-09T06:26:48.443Z,16.53
2022-08-09T06:29:16.133Z,16.68
2022-08-09T06:32:36.187Z,16.52
2022-08-09T06:34:31.670Z,16.79
2022-08-09T06:37:01.302Z,16.80
2022-08-09T06:39:48.524Z,16.84
2022-08-09T06:42:30.618Z,16.99
2022-08-09T06:46:03.467Z,17.18
2022-08-09T06:47:49.971Z,17.19
2022-08-09T06:50:31.097Z,17.15
2022-08-09T06:53:00.790Z,17.24
2022-08-09T06:55:33.064Z,17.28
2022-08-09T06:58:04.101Z,17.42
2022-08-09T07:00:55.411Z,17.42
2022-08-09T07:03:26.909Z,17.58
2022-08-09T07:06:04.042Z,17.63
2022-08-09T07:08:33.464Z,17.97
2022-08-09T07:11:04.228Z,17.94
2022-08-09T07:13:44.958Z,18.05
2022-08-09T07:16:43.361Z,18.20
2022-08-09T07:19:15.351Z,18.29
2022-08-09T07:21:55.726Z,18.33
2022-08-09T07:24:31.860Z,18.41
2022-08-09T07:27:02.777Z,18.60
2022-08-09T07:29:37.936Z,18.65
2022-08-09T07:32:10.295Z,18.67
2022-08-09T07:34:37.972Z,18.80
2022-08-09T07:37:06.583Z,18.82
2022-08-09T07:39:43.867Z,18.80
2022-08-09T07:42:15.672Z,19.20
2022-08-09T07:44:51.940Z,19.24
2022-08-09T07:47:23.225Z,19.18
2022-08-09T07:50:05.375Z,19.32
2022-08-09T07:52:36.568Z,19.96
2022-08-09T07:55:10.005Z,20.74
2022-08-09T07:57:46.573Z,21.20
2022-08-09T08:00:20.648Z,21.13
2022-08-09T08:03:05.229Z,20.86
2022-08-09T08:05:54.212Z,20.75
2022-08-09T08:09:00.309Z,20.98
2022-08-09T08:12:10.887Z,21.32
2022-08-09T08:14:06.278Z,21.36
2022-08-09T08:16:34.566Z,21.15
2022-08-09T08:19:04.549Z,20.88
2022-08-09T08:21:32.509Z,20.77
2022-08-09T08:24:01.081Z,20.77
2022-08-09T08:26:55.007Z,20.59
2022-08-09T08:29:20.397Z,20.65
2022-08-09T08:32:03.136Z,20.70
2022-08-09T08:34:33.748Z,20.67
2022-08-09T08:37:02.443Z,20.48
2022-08-09T08:39:39.271Z,20.59
2022-08-09T08:42:13.621Z,20.66
2022-08-09T08:44:44.398Z,20.72
2022-08-09T08:47:15.936Z,20.58
2022-08-09T08:49:48.587Z,20.72
2022-08-09T08:55:06.951Z,20.65
2022-08-09T08:57:37.205Z,20.78
2022-08-09T09:00:16.763Z,20.65
2022-08-09T09:03:08.351Z,20.82
2022-08-09T09:06:03.290Z,20.87
2022-08-09T09:08:32.325Z,20.78
2022-08-09T09:11:09.011Z,20.95
2022-08-09T09:13:56.261Z,20.88
2022-08-09T09:16:32.208Z,20.80
2022-08-09T09:22:11.747Z,20.75
2022-08-09T09:24:43.296Z,20.91
2022-08-09T09:28:03.624Z,20.87
2022-08-09T09:30:26.134Z,21.09
2022-08-09T09:33:15.598Z,21.09
2022-08-09T09:36:00.720Z,21.04
2022-08-09T09:38:51.008Z,21.06
2022-08-09T09:41:33.125Z,21.19
2022-08-09T09:44:31.493Z,21.24
2022-08-09T09:47:06.738Z,21.28
2022-08-09T09:49:56.380Z,21.32
2022-08-09T09:52:35.907Z,21.35
2022-08-09T09:55:49.403Z,21.47
2022-08-09T09:58:45.906Z,21.47
2022-08-09T10:01:36.758Z,21.62
2022-08-09T10:04:09.662Z,21.60
2022-08-09T10:07:09.754Z,21.61
2022-08-09T10:09:49.077Z,21.70
2022-08-09T10:12:29.632Z,21.73
2022-08-09T10:15:17.473Z,21.74
2022-08-09T10:18:12.463Z,21.85
2022-08-09T10:20:44.487Z,21.86
2022-08-09T10:23:21.119Z,21.91
2022-08-09T10:26:07.498Z,21.85
2022-08-09T10:28:39.885Z,21.87
2022-08-09T10:32:27.800Z,21.99
2022-08-09T10:34:09.235Z,22.02
2022-08-09T10:36:45.160Z,22.04
2022-08-09T10:39:49.206Z,22.35
2022-08-09T10:42:18.547Z,22.51
2022-08-09T10:44:50.983Z,22.61
2022-08-09T10:48:13.212Z,22.72
2022-08-09T10:50:47.678Z,22.98
2022-08-09T10:53:28.000Z,22.93
2022-08-09T10:56:23.570Z,23.08
2022-08-09T10:58:54.068Z,23.18
2022-08-09T11:03:13.339Z,23.33
2022-08-09T11:04:32.528Z,23.49
2022-08-09T11:07:55.791Z,23.36
2022-08-09T11:10:56.380Z,23.59
2022-08-09T11:13:50.512Z,23.74
2022-08-09T11:16:37.953Z,23.86
2022-08-09T11:19:09.742Z,23.77
2022-08-09T11:22:10.398Z,24.05
2022-08-09T11:25:05.663Z,24.04
2022-08-09T11:28:05.537Z,24.06
2022-08-09T11:30:38.230Z,24.18
2022-08-09T11:33:12.896Z,24.29
2022-08-09T11:35:49.210Z,24.46
2022-08-09T11:38:22.397Z,24.46
2022-08-09T11:40:57.024Z,24.53
2022-08-09T11:43:43.366Z,24.52
2022-08-09T11:46:12.577Z,24.47
2022-08-09T11:48:52.121Z,24.42
2022-08-09T11:53:04.024Z,24.47
2022-08-09T11:54:16.861Z,24.15
2022-08-09T11:57:47.821Z,24.50
2022-08-09T12:00:20.477Z,24.25
2022-08-09T12:02:54.223Z,24.20
2022-08-09T12:05:23.108Z,23.86
2022-08-09T12:07:52.756Z,23.81
2022-08-09T12:10:39.414Z,23.99
2022-08-09T12:14:09.122Z,24.04
2022-08-09T12:16:00.683Z,23.85
2022-08-09T12:18:31.214Z,23.68
2022-08-09T12:21:04.333Z,23.72
2022-08-09T12:24:06.217Z,23.79
2022-08-09T12:26:42.424Z,23.49
2022-08-09T12:29:33.375Z,23.64
2022-08-09T12:32:07.960Z,23.59
2022-08-09T12:34:40.525Z,23.60
2022-08-09T12:37:09.706Z,23.19
2022-08-09T12:40:00.989Z,23.28
2022-08-09T12:42:30.079Z,23.04
2022-08-09T12:44:59.432Z,23.31
2022-08-09T12:47:37.099Z,23.21
2022-08-09T12:50:23.633Z,23.38
2022-08-09T12:53:09.266Z,23.23
2022-08-09T12:56:15.024Z,22.83
2022-08-09T12:58:29.725Z,23.40
2022-08-09T13:00:58.175Z,23.23
2022-08-09T13:03:53.565Z,23.19
2022-08-09T13:06:35.019Z,23.47
2022-08-09T13:09:09.822Z,23.15
2022-08-09T13:11:42.578Z,23.39
2022-08-09T13:14:41.349Z,23.08
2022-08-09T13:17:04.146Z,23.54
2022-08-09T13:20:10.334Z,23.41
2022-08-09T13:22:37.764Z,23.43
2022-08-09T13:25:14.365Z,23.25
2022-08-09T13:27:55.084Z,23.42
2022-08-09T13:31:11.024Z,23.35
2022-08-09T13:33:24.036Z,23.37
2022-08-09T13:36:38.918Z,23.31
2022-08-09T13:38:56.494Z,23.47
2022-08-09T13:41:59.483Z,23.57
2022-08-09T13:44:16.964Z,22.98
2022-08-09T13:47:29.790Z,23.23
2022-08-09T13:49:39.484Z,23.55
2022-08-09T13:52:22.561Z,23.19
2022-08-09T13:54:59.217Z,23.23
2022-08-09T13:57:36.614Z,23.45
2022-08-09T14:00:12.452Z,23.43
2022-08-09T14:03:03.414Z,23.28
2022-08-09T14:05:58.478Z,23.33
2022-08-09T14:08:19.420Z,23.59
2022-08-09T14:10:53.123Z,23.58
2022-08-09T14:14:15.587Z,23.55
2022-08-09T14:16:14.449Z,23.56
2022-08-09T14:18:49.708Z,23.48
2022-08-09T14:21:20.215Z,23.64
2022-08-09T14:23:53.779Z,23.50
2022-08-09T14:26:31.659Z,23.23
2022-08-09T14:29:00.620Z,23.80
2022-08-09T14:31:36.218Z,23.49
2022-08-09T14:34:17.332Z,23.23
2022-08-09T14:36:57.680Z,23.60
2022-08-09T14:39:47.211Z,23.71
2022-08-09T14:42:31.002Z,23.73
2022-08-09T14:46:51.238Z,23.65
2022-08-09T14:47:57.463Z,23.40
2022-08-09T14:50:32.586Z,23.78
2022-08-09T14:53:01.559Z,23.69
2022-08-09T14:55:32.768Z,23.78
2022-08-09T14:58:05.010Z,23.81
2022-08-09T15:00:34.275Z,23.66
2022-08-09T15:03:04.374Z,23.70
2022-08-09T15:05:32.608Z,23.95
2022-08-09T15:08:00.421Z,23.88
2022-08-09T15:10:31.645Z,23.77
2022-08-09T15:13:01.453Z,23.97
2022-08-09T15:15:34.361Z,23.97
2022-08-09T15:18:13.970Z,23.73
2022-08-09T15:21:57.455Z,24.15
2022-08-09T15:24:05.958Z,24.09
2022-08-09T15:26:18.949Z,23.98
2022-08-09T15:29:04.017Z,23.96
2022-08-09T15:31:42.076Z,23.92
2022-08-09T15:34:31.518Z,23.82
2022-08-09T15:36:59.265Z,24.08
2022-08-09T15:39:34.862Z,24.01
2022-08-09T15:42:15.191Z,23.99
2022-08-09T15:44:46.488Z,24.07
2022-08-09T15:47:22.759Z,23.85
2022-08-09T15:50:03.449Z,23.88
2022-08-09T15:52:32.980Z,24.06
2022-08-09T15:55:01.501Z,24.02
2022-08-09T15:57:34.010Z,23.88
2022-08-09T16:00:06.066Z,23.99
2022-08-09T16:02:35.649Z,24.11
2022-08-09T16:05:04.440Z,23.70
2022-08-09T16:07:45.645Z,23.97
2022-08-09T16:10:17.317Z,23.86
2022-08-09T16:13:02.694Z,23.84
2022-08-09T16:16:11.206Z,23.95
2022-08-09T16:18:20.763Z,23.86
2022-08-09T16:20:50.013Z,23.67
2022-08-09T16:23:19.989Z,23.69
2022-08-09T16:25:49.845Z,23.82
2022-08-09T16:28:17.792Z,24.01
2022-08-09T16:30:58.673Z,23.77
2022-08-09T16:33:30.960Z,23.77
2022-08-09T16:36:08.472Z,23.79
2022-08-09T16:38:42.379Z,23.54
2022-08-09T16:41:16.797Z,23.68
2022-08-09T16:43:46.231Z,23.82
2022-08-09T16:46:14.560Z,23.81
2022-08-09T16:48:53.193Z,23.60
2022-08-09T16:51:27.398Z,23.64
2022-08-09T16:54:25.647Z,23.62
2022-08-09T16:56:49.430Z,23.65
2022-08-09T16:59:18.062Z,23.63
2022-08-09T17:01:50.677Z,23.39
2022-08-09T17:04:26.027Z,23.43
2022-08-09T17:08:41.409Z,23.25
2022-08-09T17:09:47.282Z,23.22
2022-08-09T17:12:16.093Z,23.16
2022-08-09T17:14:47.806Z,23.21
2022-08-09T17:17:26.312Z,22.78
2022-08-09T17:20:29.195Z,22.71
2022-08-09T17:22:51.981Z,23.00
2022-08-09T17:25:22.245Z,23.04
2022-08-09T17:27:53.932Z,23.00
2022-08-09T17:30:26.037Z,22.94
2022-08-09T17:33:00.638Z,22.86
2022-08-09T17:35:31.659Z,22.82
2022-08-09T17:38:12.745Z,22.84
2022-08-09T17:40:48.117Z,22.53
2022-08-09T17:43:34.727Z,22.65
2022-08-09T17:46:06.717Z,22.66
2022-08-09T17:48:38.530Z,22.54
2022-08-09T17:51:18.554Z,22.47
2022-08-09T17:53:51.933Z,22.12
2022-08-09T17:56:27.756Z,22.42
2022-08-09T17:58:57.661Z,22.33
2022-08-09T18:01:25.786Z,22.05
2022-08-09T18:04:13.456Z,22.23
2022-08-09T18:06:49.679Z,22.20
2022-08-09T18:09:25.003Z,22.21
2022-08-09T18:12:14.850Z,22.17
2022-08-09T18:14:53.438Z,22.06
2022-08-09T18:17:59.065Z,22.00
2022-08-09T18:20:57.184Z,21.89
2022-08-09T18:23:04.903Z,21.76
2022-08-09T18:25:53.061Z,21.80
2022-08-09T18:30:35.698Z,21.79
2022-08-09T18:31:11.809Z,21.66
2022-08-09T18:33:40.202Z,21.49
2022-08-09T18:36:14.462Z,21.63
2022-08-09T18:39:02.614Z,21.53
2022-08-09T18:41:34.334Z,21.41
2022-08-09T18:44:04.238Z,21.50
2022-08-09T18:46:47.435Z,21.39
2022-08-09T18:49:20.721Z,21.39
2022-08-09T18:51:54.947Z,21.37
2022-08-09T18:54:28.689Z,21.33
2022-08-09T18:56:57.280Z,21.28
2022-08-09T18:59:49.123Z,21.17
2022-08-09T19:02:19.811Z,21.24
2022-08-09T19:05:04.103Z,21.21
2022-08-09T19:07:36.259Z,21.13
2022-08-09T19:10:14.963Z,21.01
2022-08-09T19:12:50.591Z,21.05
2022-08-09T19:15:33.801Z,20.92
2022-08-09T19:18:01.999Z,20.94
2022-08-09T19:20:39.278Z,20.92
2022-08-09T19:23:07.959Z,20.82
2022-08-09T19:26:02.390Z,21.13
2022-08-09T19:28:28.780Z,20.97
2022-08-09T19:30:56.915Z,21.05
2022-08-09T19:33:24.775Z,20.98
2022-08-09T19:35:57.873Z,20.96
2022-08-09T19:38:27.035Z,20.87
2022-08-09T19:40:57.623Z,20.78
2022-08-09T19:44:01.615Z,20.65
2022-08-09T19:46:16.718Z,20.61
